createdAt,value
2017-07-30T00:00:25.675Z,0
2017-07-30T00:01:35.211Z,0
2017-07-30T00:02:44.416Z,0
2017-07-30T00:03:53.298Z,0
2017-07-30T00:05:03.130Z,0
2017-07-30T00:06:12.338Z,0
2017-07-30T00:07:21.543Z,0
2017-07-30T00:08:30.753Z,0
2017-07-30T00:09:40.281Z,0
2017-07-30T00:10:50.514Z,0
2017-07-30T00:12:00.039Z,0
2017-07-30T00:13:09.577Z,0
2017-07-30T00:14:19.116Z,0
2017-07-30T00:15:28.646Z,0
2017-07-30T00:16:38.332Z,0
2017-07-30T00:17:47.536Z,0
2017-07-30T00:18:56.423Z,0
2017-07-30T00:20:06.344Z,0
2017-07-30T00:21:15.875Z,0
2017-07-30T00:22:25.174Z,0
2017-07-30T00:23:35.026Z,0
2017-07-30T00:24:44.559Z,0
2017-07-30T00:25:54.090Z,0
2017-07-30T00:27:03.618Z,0
2017-07-30T00:28:12.985Z,0
2017-07-30T00:29:22.515Z,0
2017-07-30T00:30:31.718Z,0
2017-07-30T00:31:41.263Z,0
2017-07-30T00:32:50.473Z,0
2017-07-30T00:34:00.156Z,0
2017-07-30T00:35:09.685Z,0
2017-07-30T00:36:18.900Z,0
2017-07-30T00:37:28.431Z,0
2017-07-30T00:38:37.637Z,0
2017-07-30T00:39:46.995Z,0
2017-07-30T00:40:56.209Z,0
2017-07-30T00:42:05.428Z,0
2017-07-30T00:43:14.966Z,0
2017-07-30T00:44:24.501Z,0
2017-07-30T00:45:33.855Z,0
2017-07-30T00:46:43.384Z,0
2017-07-30T00:47:52.919Z,0
2017-07-30T00:49:02.769Z,0
2017-07-30T00:50:11.976Z,0
2017-07-30T00:51:21.185Z,0
2017-07-30T00:52:30.401Z,0
2017-07-30T00:53:39.606Z,0
2017-07-30T00:54:48.810Z,0
2017-07-30T00:55:58.340Z,0
2017-07-30T00:57:07.914Z,0
2017-07-30T00:58:17.121Z,0
2017-07-30T00:59:26.329Z,0
2017-07-30T01:00:35.856Z,0
2017-07-30T01:01:45.389Z,0
2017-07-30T01:02:54.743Z,0
2017-07-30T01:04:04.596Z,0
2017-07-30T01:05:14.448Z,0
2017-07-30T01:06:23.333Z,0
2017-07-30T01:07:32.860Z,0
2017-07-30T01:08:42.215Z,0
2017-07-30T01:09:51.772Z,0
2017-07-30T01:11:01.354Z,0
2017-07-30T01:12:10.882Z,0
2017-07-30T01:13:19.769Z,0
2017-07-30T01:14:28.946Z,0
2017-07-30T01:15:38.152Z,0
2017-07-30T01:16:47.357Z,0
2017-07-30T01:17:56.561Z,0
2017-07-30T01:19:06.411Z,0
2017-07-30T01:20:16.043Z,0
2017-07-30T01:21:24.923Z,0
2017-07-30T01:22:34.463Z,0
2017-07-30T01:23:43.345Z,0
2017-07-30T01:24:52.878Z,0
2017-07-30T01:26:02.400Z,0
2017-07-30T01:27:11.930Z,0
2017-07-30T01:28:20.816Z,0
2017-07-30T01:29:30.020Z,0
2017-07-30T01:30:39.233Z,0
2017-07-30T01:31:48.540Z,0
2017-07-30T01:32:58.074Z,0
2017-07-30T01:34:08.013Z,0
2017-07-30T01:35:17.221Z,0
2017-07-30T01:36:26.103Z,0
2017-07-30T01:37:38.740Z,0
2017-07-30T01:38:47.962Z,0
2017-07-30T01:39:56.859Z,0
2017-07-30T01:41:06.072Z,0
2017-07-30T01:42:15.276Z,0
2017-07-30T01:43:24.633Z,0
2017-07-30T01:44:33.843Z,0
2017-07-30T01:45:43.070Z,0
2017-07-30T01:46:52.924Z,0
2017-07-30T01:48:01.808Z,0
2017-07-30T01:49:11.539Z,0
2017-07-30T01:50:21.067Z,0
2017-07-30T01:51:30.601Z,0
2017-07-30T01:52:40.136Z,0
2017-07-30T01:53:49.344Z,0
2017-07-30T01:54:59.030Z,0
2017-07-30T01:56:08.237Z,0
2017-07-30T01:57:17.121Z,0
2017-07-30T01:58:26.345Z,0
2017-07-30T01:59:35.228Z,0
2017-07-30T02:00:45.284Z,0
2017-07-30T02:01:54.488Z,0
2017-07-30T02:03:04.355Z,0
2017-07-30T02:04:13.560Z,0
2017-07-30T02:05:22.450Z,0
2017-07-30T02:06:32.134Z,0
2017-07-30T02:07:41.342Z,0
2017-07-30T02:08:50.874Z,0
2017-07-30T02:09:59.753Z,0
2017-07-30T02:11:08.958Z,0
2017-07-30T02:12:18.962Z,0
2017-07-30T02:13:28.819Z,0
2017-07-30T02:14:38.037Z,0
2017-07-30T02:15:46.919Z,0
2017-07-30T02:16:56.447Z,0
2017-07-30T02:18:05.759Z,0
2017-07-30T02:19:15.295Z,0
2017-07-30T02:20:24.497Z,0
2017-07-30T02:21:33.380Z,0
2017-07-30T02:22:42.262Z,0
2017-07-30T02:23:51.841Z,0
2017-07-30T02:25:01.042Z,0
2017-07-30T02:26:10.576Z,0
2017-07-30T02:27:19.466Z,0
2017-07-30T02:28:28.680Z,0
2017-07-30T02:29:38.359Z,0
2017-07-30T02:30:47.573Z,0
2017-07-30T02:31:56.786Z,0
2017-07-30T02:33:06.324Z,0
2017-07-30T02:34:16.180Z,0
2017-07-30T02:35:26.181Z,0
2017-07-30T02:36:36.040Z,0
2017-07-30T02:37:45.258Z,0
2017-07-30T02:38:55.112Z,0
2017-07-30T02:40:04.320Z,0
2017-07-30T02:41:14.503Z,0
2017-07-30T02:42:24.032Z,0
2017-07-30T02:43:33.234Z,0
2017-07-30T02:44:43.412Z,0
2017-07-30T02:45:53.263Z,0
2017-07-30T02:47:02.772Z,0
2017-07-30T02:48:11.983Z,0
2017-07-30T02:49:21.834Z,0
2017-07-30T02:50:32.015Z,0
2017-07-30T02:51:41.233Z,0
2017-07-30T02:52:50.912Z,0
2017-07-30T02:54:00.122Z,0
2017-07-30T02:55:09.654Z,0
2017-07-30T02:56:18.863Z,0
2017-07-30T02:57:28.390Z,0
2017-07-30T02:58:37.421Z,0
2017-07-30T02:59:46.955Z,0
2017-07-30T03:00:56.482Z,0
2017-07-30T03:02:05.687Z,0
2017-07-30T03:03:15.213Z,0
2017-07-30T03:04:24.470Z,0
2017-07-30T03:05:33.354Z,0
2017-07-30T03:06:42.560Z,0
2017-07-30T03:07:52.409Z,0
2017-07-30T03:09:01.940Z,4
2017-07-30T03:10:11.944Z,4
2017-07-30T03:11:20.825Z,4
2017-07-30T03:12:30.028Z,0
2017-07-30T03:13:38.938Z,4
2017-07-30T03:14:48.477Z,4
2017-07-30T03:15:57.458Z,8
2017-07-30T03:17:06.342Z,4
2017-07-30T03:18:15.548Z,8
2017-07-30T03:19:24.757Z,8
2017-07-30T03:20:34.642Z,8
2017-07-30T03:21:43.849Z,8
2017-07-30T03:22:53.085Z,12
2017-07-30T03:24:02.292Z,8
2017-07-30T03:25:11.507Z,12
2017-07-30T03:26:21.365Z,12
2017-07-30T03:27:31.368Z,16
2017-07-30T03:28:40.573Z,16
2017-07-30T03:29:50.104Z,20
2017-07-30T03:30:59.640Z,20
2017-07-30T03:32:09.184Z,24
2017-07-30T03:33:18.763Z,24
2017-07-30T03:34:28.617Z,20
2017-07-30T03:35:37.823Z,24
2017-07-30T03:36:47.352Z,28
2017-07-30T03:37:56.559Z,28
2017-07-30T03:39:06.066Z,36
2017-07-30T03:40:15.270Z,40
2017-07-30T03:41:24.478Z,40
2017-07-30T03:42:34.333Z,56
2017-07-30T03:43:44.185Z,60
2017-07-30T03:44:53.312Z,64
2017-07-30T03:46:02.524Z,64
2017-07-30T03:47:11.736Z,72
2017-07-30T03:48:20.941Z,80
2017-07-30T03:49:30.468Z,84
2017-07-30T03:50:39.726Z,92
2017-07-30T03:51:48.941Z,104
2017-07-30T03:52:58.147Z,104
2017-07-30T03:54:07.354Z,104
2017-07-30T03:55:16.557Z,116
2017-07-30T03:56:26.238Z,128
2017-07-30T03:57:35.453Z,140
2017-07-30T03:58:44.985Z,156
2017-07-30T03:59:55.166Z,172
2017-07-30T04:01:04.700Z,192
2017-07-30T04:02:14.055Z,220
2017-07-30T04:03:23.585Z,256
2017-07-30T04:04:32.788Z,288
2017-07-30T04:05:42.318Z,316
2017-07-30T04:06:51.244Z,332
2017-07-30T04:08:00.434Z,352
2017-07-30T04:09:09.973Z,352
2017-07-30T04:10:19.180Z,336
2017-07-30T04:11:28.068Z,308
2017-07-30T04:12:37.274Z,296
2017-07-30T04:13:46.302Z,304
2017-07-30T04:14:55.831Z,304
2017-07-30T04:16:05.039Z,316
2017-07-30T04:17:14.571Z,328
2017-07-30T04:18:23.776Z,336
2017-07-30T04:19:33.139Z,336
2017-07-30T04:20:42.994Z,328
2017-07-30T04:21:53.193Z,340
2017-07-30T04:23:02.728Z,364
2017-07-30T04:24:11.612Z,384
2017-07-30T04:25:20.969Z,396
2017-07-30T04:26:29.852Z,416
2017-07-30T04:27:39.061Z,436
2017-07-30T04:28:47.941Z,448
2017-07-30T04:29:57.146Z,452
2017-07-30T04:31:07.477Z,488
2017-07-30T04:32:16.713Z,512
2017-07-30T04:33:26.247Z,536
2017-07-30T04:34:35.786Z,580
2017-07-30T04:35:44.672Z,628
2017-07-30T04:36:53.568Z,680
2017-07-30T04:38:02.771Z,720
2017-07-30T04:39:11.663Z,740
2017-07-30T04:40:21.200Z,744
2017-07-30T04:41:30.732Z,740
2017-07-30T04:42:40.342Z,724
2017-07-30T04:43:49.227Z,692
2017-07-30T04:44:58.110Z,672
2017-07-30T04:46:07.648Z,692
2017-07-30T04:47:16.529Z,692
2017-07-30T04:48:25.789Z,672
2017-07-30T04:49:34.993Z,632
2017-07-30T04:50:43.877Z,572
2017-07-30T04:51:53.083Z,500
2017-07-30T04:53:02.287Z,500
2017-07-30T04:54:11.819Z,496
2017-07-30T04:55:21.022Z,496
2017-07-30T04:56:30.235Z,508
2017-07-30T04:57:39.445Z,504
2017-07-30T04:58:48.655Z,540
2017-07-30T04:59:58.014Z,588
2017-07-30T05:01:07.870Z,636
2017-07-30T05:02:18.091Z,712
2017-07-30T05:03:27.617Z,804
2017-07-30T05:04:37.149Z,868
2017-07-30T05:05:46.982Z,940
2017-07-30T05:06:56.509Z,904
2017-07-30T05:08:06.040Z,852
2017-07-30T05:09:15.571Z,800
2017-07-30T05:10:24.776Z,756
2017-07-30T05:11:34.280Z,732
2017-07-30T05:12:44.136Z,780
2017-07-30T05:13:53.993Z,916
2017-07-30T05:15:03.518Z,1100
2017-07-30T05:16:13.052Z,1068
2017-07-30T05:17:22.404Z,912
2017-07-30T05:18:31.607Z,856
2017-07-30T05:19:41.459Z,768
2017-07-30T05:20:50.354Z,752
2017-07-30T05:21:59.237Z,884
2017-07-30T05:23:08.595Z,940
2017-07-30T05:24:18.132Z,812
2017-07-30T05:25:27.662Z,772
2017-07-30T05:26:37.516Z,916
2017-07-30T05:27:47.697Z,1220
2017-07-30T05:28:57.379Z,1388
2017-07-30T05:30:06.587Z,1092
2017-07-30T05:31:16.137Z,1104
2017-07-30T05:32:25.989Z,1308
2017-07-30T05:33:35.196Z,1244
2017-07-30T05:34:44.879Z,1340
2017-07-30T05:35:54.086Z,1416
2017-07-30T05:37:03.294Z,1452
2017-07-30T05:38:12.826Z,1704
2017-07-30T05:39:22.358Z,2120
2017-07-30T05:40:32.271Z,2460
2017-07-30T05:41:41.816Z,2600
2017-07-30T05:42:51.674Z,2156
2017-07-30T05:44:01.203Z,2356
2017-07-30T05:45:10.742Z,1984
2017-07-30T05:46:20.650Z,1712
2017-07-30T05:47:29.537Z,1840
2017-07-30T05:48:39.396Z,1632
2017-07-30T05:49:48.928Z,1944
2017-07-30T05:50:58.783Z,2148
2017-07-30T05:52:08.372Z,2020
2017-07-30T05:53:17.261Z,1540
2017-07-30T05:54:27.124Z,1248
2017-07-30T05:55:36.981Z,1352
2017-07-30T05:56:46.836Z,1256
2017-07-30T05:57:56.517Z,1152
2017-07-30T05:59:05.732Z,1020
2017-07-30T06:00:15.272Z,1192
2017-07-30T06:01:24.491Z,1316
2017-07-30T06:02:34.344Z,1396
2017-07-30T06:03:43.980Z,1480
2017-07-30T06:04:52.865Z,1432
2017-07-30T06:06:02.077Z,1668
2017-07-30T06:07:11.298Z,2016
2017-07-30T06:08:20.505Z,2004
2017-07-30T06:09:30.300Z,2172
2017-07-30T06:10:39.516Z,2416
2017-07-30T06:11:49.086Z,2288
2017-07-30T06:12:58.944Z,1940
2017-07-30T06:14:08.481Z,2120
2017-07-30T06:15:18.335Z,2012
2017-07-30T06:16:27.867Z,1864
2017-07-30T06:17:37.728Z,1980
2017-07-30T06:18:47.910Z,2348
2017-07-30T06:19:56.793Z,2860
2017-07-30T06:21:06.523Z,3340
2017-07-30T06:22:15.733Z,3516
2017-07-30T06:23:25.268Z,2200
2017-07-30T06:24:34.806Z,1388
2017-07-30T06:25:44.335Z,1364
2017-07-30T06:26:53.869Z,1584
2017-07-30T06:28:03.739Z,1852
2017-07-30T06:29:12.635Z,1852
2017-07-30T06:30:22.167Z,2744
2017-07-30T06:31:32.029Z,2876
2017-07-30T06:32:40.912Z,2468
2017-07-30T06:33:50.118Z,2180
2017-07-30T06:34:59.691Z,2616
2017-07-30T06:36:09.222Z,3032
2017-07-30T06:37:18.755Z,2932
2017-07-30T06:38:27.693Z,2900
2017-07-30T06:39:37.554Z,2668
2017-07-30T06:40:46.457Z,2344
2017-07-30T06:41:55.988Z,2184
2017-07-30T06:43:05.848Z,2796
2017-07-30T06:44:15.380Z,3584
2017-07-30T06:45:24.922Z,2904
2017-07-30T06:46:33.806Z,1632
2017-07-30T06:47:43.338Z,1452
2017-07-30T06:48:52.872Z,1336
2017-07-30T06:50:02.190Z,1284
2017-07-30T06:51:11.398Z,1460
2017-07-30T06:52:21.254Z,1392
2017-07-30T06:53:30.789Z,1376
2017-07-30T06:54:39.999Z,1516
2017-07-30T06:55:50.159Z,1556
2017-07-30T06:56:59.058Z,1420
2017-07-30T06:58:07.946Z,1280
2017-07-30T06:59:17.152Z,1372
2017-07-30T07:00:27.005Z,1444
2017-07-30T07:01:36.260Z,1880
2017-07-30T07:02:45.146Z,1916
2017-07-30T07:03:54.032Z,1896
2017-07-30T07:05:03.238Z,1980
2017-07-30T07:06:12.447Z,1880
2017-07-30T07:07:21.484Z,1908
2017-07-30T07:08:31.340Z,1988
2017-07-30T07:09:40.544Z,2148
2017-07-30T07:10:50.430Z,2236
2017-07-30T07:11:59.639Z,2696
2017-07-30T07:13:09.871Z,3644
2017-07-30T07:14:19.102Z,4432
2017-07-30T07:15:28.313Z,2988
2017-07-30T07:16:37.523Z,2908
2017-07-30T07:17:46.731Z,3500
2017-07-30T07:18:55.942Z,3592
2017-07-30T07:20:05.182Z,2344
2017-07-30T07:21:14.784Z,2812
2017-07-30T07:22:24.000Z,2268
2017-07-30T07:23:33.532Z,2664
2017-07-30T07:24:43.069Z,3716
2017-07-30T07:25:52.276Z,3740
2017-07-30T07:27:01.490Z,3552
2017-07-30T07:28:11.347Z,4080
2017-07-30T07:29:20.880Z,4816
2017-07-30T07:30:30.146Z,4848
2017-07-30T07:31:39.371Z,5004
2017-07-30T07:32:48.919Z,4328
2017-07-30T07:33:58.453Z,3828
2017-07-30T07:35:07.672Z,3080
2017-07-30T07:36:17.033Z,3048
2017-07-30T07:37:26.567Z,3468
2017-07-30T07:38:35.457Z,3240
2017-07-30T07:39:44.684Z,3048
2017-07-30T07:40:54.222Z,3040
2017-07-30T07:42:03.261Z,2796
2017-07-30T07:43:12.797Z,3180
2017-07-30T07:44:22.656Z,3364
2017-07-30T07:45:32.196Z,2536
2017-07-30T07:46:42.054Z,2244
2017-07-30T07:47:51.039Z,2276
2017-07-30T07:49:00.254Z,2184
2017-07-30T07:50:10.438Z,2140
2017-07-30T07:51:19.655Z,2128
2017-07-30T07:52:28.868Z,2420
2017-07-30T07:53:38.054Z,3156
2017-07-30T07:54:46.943Z,3300
2017-07-30T07:55:56.474Z,3172
2017-07-30T07:57:06.005Z,2660
2017-07-30T07:58:15.536Z,2772
2017-07-30T07:59:25.376Z,2640
2017-07-30T08:00:34.921Z,3476
2017-07-30T08:01:44.457Z,3780
2017-07-30T08:02:53.345Z,4748
2017-07-30T08:04:02.232Z,5432
2017-07-30T08:05:11.818Z,5132
2017-07-30T08:06:21.352Z,4604
2017-07-30T08:07:30.888Z,4284
2017-07-30T08:08:40.101Z,3772
2017-07-30T08:09:48.985Z,3280
2017-07-30T08:10:58.520Z,2972
2017-07-30T08:12:08.054Z,2996
2017-07-30T08:13:16.941Z,3204
2017-07-30T08:14:26.805Z,3536
2017-07-30T08:15:36.015Z,4604
2017-07-30T08:16:44.954Z,5324
2017-07-30T08:17:54.485Z,5976
2017-07-30T08:19:03.699Z,5904
2017-07-30T08:20:12.933Z,4652
2017-07-30T08:21:21.842Z,4220
2017-07-30T08:22:31.154Z,4592
2017-07-30T08:23:40.043Z,4788
2017-07-30T08:24:49.577Z,4576
2017-07-30T08:25:58.492Z,4040
2017-07-30T08:27:07.385Z,3336
2017-07-30T08:28:17.116Z,2952
2017-07-30T08:29:26.657Z,2628
2017-07-30T08:30:36.200Z,2572
2017-07-30T08:31:46.065Z,2740
2017-07-30T08:32:54.954Z,2760
2017-07-30T08:34:04.639Z,2816
2017-07-30T08:35:13.851Z,2896
2017-07-30T08:36:23.084Z,2904
2017-07-30T08:37:31.971Z,2972
2017-07-30T08:38:41.825Z,2888
2017-07-30T08:39:51.082Z,2808
2017-07-30T08:40:59.966Z,2792
2017-07-30T08:42:09.496Z,2756
2017-07-30T08:43:19.031Z,2800
2017-07-30T08:44:28.562Z,2988
2017-07-30T08:45:37.782Z,3016
2017-07-30T08:46:47.315Z,2944
2017-07-30T08:47:57.168Z,3144
2017-07-30T08:49:06.378Z,3560
2017-07-30T08:50:15.593Z,3756
2017-07-30T08:51:24.581Z,4052
2017-07-30T08:52:34.124Z,4212
2017-07-30T08:53:43.344Z,3876
2017-07-30T08:54:52.236Z,3736
2017-07-30T08:56:01.125Z,3668
2017-07-30T08:57:10.740Z,3624
2017-07-30T08:58:20.621Z,3700
2017-07-30T08:59:29.514Z,3956
2017-07-30T09:00:38.723Z,4188
2017-07-30T09:01:48.582Z,4208
2017-07-30T09:02:57.946Z,4108
2017-07-30T09:04:07.806Z,5120
2017-07-30T09:05:17.990Z,4948
2017-07-30T09:06:27.522Z,4328
2017-07-30T09:07:37.391Z,4960
2017-07-30T09:08:46.379Z,6124
2017-07-30T09:09:55.598Z,6028
2017-07-30T09:11:04.806Z,4964
2017-07-30T09:12:14.339Z,4660
2017-07-30T09:13:24.202Z,4620
2017-07-30T09:14:34.051Z,4512
2017-07-30T09:15:43.586Z,6084
2017-07-30T09:16:52.801Z,6152
2017-07-30T09:18:02.012Z,5104
2017-07-30T09:19:11.546Z,3904
2017-07-30T09:20:21.508Z,3576
2017-07-30T09:21:31.372Z,2952
2017-07-30T09:22:40.584Z,2008
2017-07-30T09:23:50.122Z,2536
2017-07-30T09:24:59.663Z,3500
2017-07-30T09:26:09.584Z,5344
2017-07-30T09:27:18.795Z,7040
2017-07-30T09:28:28.335Z,6832
2017-07-30T09:29:37.541Z,7352
2017-07-30T09:30:46.753Z,7116
2017-07-30T09:31:57.316Z,6648
2017-07-30T09:33:06.530Z,6048
2017-07-30T09:34:15.749Z,6088
2017-07-30T09:35:25.285Z,5544
2017-07-30T09:36:34.830Z,5168
2017-07-30T09:37:44.016Z,5044
2017-07-30T09:38:53.554Z,4808
2017-07-30T09:40:02.449Z,4488
2017-07-30T09:41:11.981Z,4284
2017-07-30T09:42:20.867Z,4184
2017-07-30T09:43:30.978Z,4408
2017-07-30T09:44:41.167Z,4756
2017-07-30T09:45:50.379Z,5068
2017-07-30T09:46:59.269Z,5632
2017-07-30T09:48:08.482Z,6296
2017-07-30T09:49:17.896Z,6648
2017-07-30T09:50:27.112Z,6408
2017-07-30T09:51:36.328Z,6112
2017-07-30T09:52:45.861Z,6504
2017-07-30T09:53:54.750Z,7256
2017-07-30T09:55:03.963Z,6608
2017-07-30T09:56:13.827Z,6000
2017-07-30T09:57:23.689Z,6064
2017-07-30T09:58:32.907Z,6460
2017-07-30T09:59:42.120Z,7096
2017-07-30T10:00:51.803Z,7632
2017-07-30T10:02:01.013Z,7676
2017-07-30T10:03:10.873Z,4172
2017-07-30T10:04:20.741Z,5908
2017-07-30T10:05:30.274Z,7028
2017-07-30T10:06:39.812Z,6656
2017-07-30T10:07:49.346Z,5424
2017-07-30T10:08:58.560Z,5248
2017-07-30T10:10:07.779Z,5112
2017-07-30T10:11:17.637Z,3988
2017-07-30T10:12:26.681Z,5280
2017-07-30T10:13:36.539Z,4208
2017-07-30T10:14:46.077Z,4400
2017-07-30T10:15:55.290Z,3984
2017-07-30T10:17:04.829Z,4080
2017-07-30T10:18:14.746Z,5456
2017-07-30T10:19:23.956Z,6032
2017-07-30T10:20:33.169Z,7648
2017-07-30T10:21:42.056Z,7096
2017-07-30T10:22:50.948Z,5264
2017-07-30T10:24:00.637Z,4864
2017-07-30T10:25:10.829Z,5148
2017-07-30T10:26:20.367Z,6028
2017-07-30T10:27:29.261Z,6132
2017-07-30T10:28:38.152Z,7136
2017-07-30T10:29:48.025Z,7188
2017-07-30T10:30:57.236Z,7044
2017-07-30T10:32:06.122Z,6036
2017-07-30T10:33:15.661Z,5804
2017-07-30T10:34:24.553Z,5664
2017-07-30T10:35:34.718Z,5704
2017-07-30T10:36:43.932Z,4584
2017-07-30T10:37:53.154Z,5624
2017-07-30T10:39:02.369Z,8052
2017-07-30T10:40:11.259Z,5656
2017-07-30T10:41:20.948Z,5076
2017-07-30T10:42:29.836Z,5500
2017-07-30T10:43:39.375Z,7084
2017-07-30T10:44:48.592Z,7556
2017-07-30T10:45:58.126Z,7020
2017-07-30T10:47:07.542Z,6928
2017-07-30T10:48:16.758Z,6312
2017-07-30T10:49:25.651Z,7700
2017-07-30T10:50:34.861Z,7700
2017-07-30T10:51:44.078Z,8144
2017-07-30T10:52:53.171Z,8708
2017-07-30T10:54:02.384Z,8200
2017-07-30T10:55:11.597Z,7844
2017-07-30T10:56:21.459Z,8024
2017-07-30T10:57:31.001Z,8832
2017-07-30T10:58:40.319Z,8640
2017-07-30T10:59:49.213Z,9196
2017-07-30T11:00:58.754Z,9368
2017-07-30T11:02:07.650Z,8744
2017-07-30T11:03:17.189Z,9176
2017-07-30T11:04:26.879Z,9620
2017-07-30T11:05:35.772Z,8656
2017-07-30T11:06:45.309Z,8304
2017-07-30T11:07:54.847Z,8608
2017-07-30T11:09:05.037Z,9628
2017-07-30T11:10:14.453Z,8868
2017-07-30T11:11:23.345Z,8888
2017-07-30T11:12:32.563Z,9040
2017-07-30T11:13:42.102Z,9232
2017-07-30T11:14:50.989Z,9144
2017-07-30T11:16:00.253Z,8948
2017-07-30T11:17:10.119Z,8724
2017-07-30T11:18:19.989Z,8500
2017-07-30T11:19:29.862Z,8116
2017-07-30T11:20:39.726Z,8572
2017-07-30T11:21:49.259Z,8060
2017-07-30T11:22:58.478Z,8384
2017-07-30T11:24:07.701Z,6928
2017-07-30T11:25:17.239Z,4596
2017-07-30T11:26:26.454Z,5920
2017-07-30T11:27:35.819Z,8632
2017-07-30T11:28:45.361Z,8580
2017-07-30T11:29:54.909Z,8180
2017-07-30T11:31:03.799Z,8872
2017-07-30T11:32:13.339Z,9392
2017-07-30T11:33:22.704Z,7156
2017-07-30T11:34:32.239Z,4816
2017-07-30T11:35:41.129Z,6880
2017-07-30T11:36:50.375Z,6284
2017-07-30T11:37:59.265Z,6156
2017-07-30T11:39:09.324Z,7156
2017-07-30T11:40:18.215Z,7644
2017-07-30T11:41:27.764Z,5360
2017-07-30T11:42:36.984Z,5848
2017-07-30T11:43:46.521Z,5676
2017-07-30T11:44:55.982Z,3160
2017-07-30T11:46:05.193Z,5452
2017-07-30T11:47:14.407Z,6616
2017-07-30T11:48:23.622Z,5888
2017-07-30T11:49:32.515Z,7532
2017-07-30T11:50:41.978Z,5788
2017-07-30T11:51:50.869Z,6188
2017-07-30T11:53:00.079Z,8616
2017-07-30T11:54:09.295Z,10248
2017-07-30T11:55:18.831Z,11844
2017-07-30T11:56:27.776Z,12120
2017-07-30T11:57:36.985Z,12496
2017-07-30T11:58:45.873Z,12024
2017-07-30T11:59:55.732Z,12452
2017-07-30T12:01:05.266Z,12044
2017-07-30T12:02:14.801Z,13620
2017-07-30T12:03:24.663Z,8476
2017-07-30T12:04:34.203Z,7984
2017-07-30T12:05:43.737Z,7404
2017-07-30T12:06:52.634Z,7660
2017-07-30T12:08:01.906Z,12244
2017-07-30T12:09:11.775Z,7988
2017-07-30T12:10:21.336Z,5780
2017-07-30T12:11:30.230Z,8412
2017-07-30T12:12:39.764Z,24640
2017-07-30T12:13:49.359Z,27840
2017-07-30T12:14:58.254Z,30848
2017-07-30T12:16:07.790Z,22880
2017-07-30T12:17:17.337Z,33696
2017-07-30T12:18:26.228Z,32832
2017-07-30T12:19:35.280Z,38656
2017-07-30T12:20:45.151Z,47360
2017-07-30T12:21:54.045Z,37248
2017-07-30T12:23:03.944Z,33312
2017-07-30T12:24:13.804Z,41760
2017-07-30T12:25:23.025Z,37024
2017-07-30T12:26:32.562Z,45696
2017-07-30T12:27:41.455Z,56064
2017-07-30T12:28:51.006Z,54592
2017-07-30T12:30:00.544Z,40992
2017-07-30T12:31:09.762Z,36032
2017-07-30T12:32:19.302Z,41888
2017-07-30T12:33:29.490Z,34464
2017-07-30T12:34:38.712Z,32096
2017-07-30T12:35:47.945Z,33760
2017-07-30T12:36:57.654Z,44960
2017-07-30T12:38:07.545Z,59712
2017-07-30T12:39:17.087Z,70592
2017-07-30T12:40:26.302Z,73888
2017-07-30T12:41:36.167Z,81152
2017-07-30T12:42:46.041Z,80576
2017-07-30T12:43:54.938Z,93600
2017-07-30T12:45:04.808Z,84928
2017-07-30T12:46:14.357Z,83232
2017-07-30T12:47:23.255Z,94752
2017-07-30T12:48:32.953Z,92544
2017-07-30T12:49:42.178Z,93216
2017-07-30T12:50:51.083Z,98048
2017-07-30T12:51:59.983Z,82528
2017-07-30T12:53:08.883Z,94144
2017-07-30T12:54:18.585Z,4108
2017-07-30T12:55:27.806Z,5624
2017-07-30T12:56:37.029Z,5592
2017-07-30T12:57:46.894Z,8148
2017-07-30T12:58:56.115Z,6920
2017-07-30T13:00:05.810Z,4740
2017-07-30T13:01:16.012Z,97440
2017-07-30T13:02:24.915Z,7344
2017-07-30T13:03:34.135Z,5412
2017-07-30T13:04:43.032Z,83296
2017-07-30T13:05:52.621Z,90752
2017-07-30T13:07:01.840Z,89184
2017-07-30T13:08:11.062Z,12212
2017-07-30T13:09:19.954Z,35392
2017-07-30T13:10:28.851Z,81888
2017-07-30T13:11:38.502Z,73376
2017-07-30T13:12:48.047Z,43744
2017-07-30T13:13:57.610Z,14004
2017-07-30T13:15:07.162Z,8052
2017-07-30T13:16:17.037Z,17888
2017-07-30T13:17:26.266Z,49472
2017-07-30T13:18:35.817Z,12832
2017-07-30T13:19:45.690Z,34368
2017-07-30T13:20:55.236Z,11040
2017-07-30T13:22:04.806Z,12476
2017-07-30T13:23:14.189Z,75904
2017-07-30T13:24:23.735Z,56768
2017-07-30T13:25:33.274Z,9740
2017-07-30T13:26:42.172Z,72032
2017-07-30T13:27:51.393Z,11972
2017-07-30T13:29:01.098Z,68288
2017-07-30T13:30:10.966Z,54400
2017-07-30T13:31:19.870Z,10032
2017-07-30T13:32:29.091Z,8276
2017-07-30T13:33:38.305Z,8900
2017-07-30T13:34:48.260Z,5512
2017-07-30T13:35:57.811Z,5620
2017-07-30T13:37:07.355Z,11352
2017-07-30T13:38:16.577Z,11904
2017-07-30T13:39:25.794Z,8164
2017-07-30T13:40:35.442Z,6968
2017-07-30T13:41:44.990Z,7476
2017-07-30T13:42:54.213Z,28192
2017-07-30T13:44:03.438Z,10772
2017-07-30T13:45:13.311Z,8148
2017-07-30T13:46:22.529Z,7748
2017-07-30T13:47:32.070Z,13908
2017-07-30T13:48:41.935Z,8348
2017-07-30T13:49:51.152Z,9048
2017-07-30T13:51:00.047Z,12336
2017-07-30T13:52:09.369Z,11472
2017-07-30T13:53:18.917Z,10976
2017-07-30T13:54:27.809Z,24960
2017-07-30T13:55:37.350Z,31488
2017-07-30T13:56:47.212Z,11596
2017-07-30T13:57:56.727Z,9380
2017-07-30T13:59:06.921Z,6780
2017-07-30T14:00:16.182Z,4820
2017-07-30T14:01:26.047Z,5064
2017-07-30T14:02:35.275Z,7684
2017-07-30T14:03:44.594Z,12416
2017-07-30T14:04:54.130Z,34464
2017-07-30T14:06:04.002Z,52832
2017-07-30T14:07:13.869Z,52608
2017-07-30T14:08:22.768Z,48960
2017-07-30T14:09:32.138Z,62816
2017-07-30T14:10:41.033Z,70368
2017-07-30T14:11:50.581Z,45440
2017-07-30T14:12:59.799Z,61088
2017-07-30T14:14:09.666Z,13736
2017-07-30T14:15:18.665Z,64736
2017-07-30T14:16:28.210Z,46976
2017-07-30T14:17:38.728Z,22752
2017-07-30T14:18:48.274Z,17024
2017-07-30T14:19:58.145Z,58272
2017-07-30T14:21:07.422Z,18144
2017-07-30T14:22:16.325Z,61312
2017-07-30T14:23:25.879Z,38720
2017-07-30T14:24:35.426Z,8816
2017-07-30T14:25:45.617Z,9944
2017-07-30T14:26:54.513Z,6464
2017-07-30T14:28:03.732Z,4956
2017-07-30T14:29:13.601Z,5392
2017-07-30T14:30:23.469Z,5356
2017-07-30T14:31:32.690Z,5892
2017-07-30T14:32:42.296Z,5980
2017-07-30T14:33:51.516Z,6692
2017-07-30T14:35:00.408Z,7784
2017-07-30T14:36:09.951Z,7800
2017-07-30T14:37:19.491Z,6268
2017-07-30T14:38:29.558Z,6244
2017-07-30T14:39:38.774Z,9248
2017-07-30T14:40:47.675Z,7844
2017-07-30T14:41:56.891Z,9124
2017-07-30T14:43:06.430Z,10056
2017-07-30T14:44:16.496Z,15184
2017-07-30T14:45:25.712Z,33792
2017-07-30T14:46:34.604Z,9096
2017-07-30T14:47:43.821Z,5316
2017-07-30T14:48:53.686Z,8988
2017-07-30T14:50:03.376Z,12572
2017-07-30T14:51:13.564Z,14656
2017-07-30T14:52:22.780Z,11836
2017-07-30T14:53:32.646Z,10372
2017-07-30T14:54:41.549Z,10096
2017-07-30T14:55:51.392Z,16320
2017-07-30T14:57:00.932Z,17216
2017-07-30T14:58:10.496Z,72288
2017-07-30T14:59:19.768Z,38176
2017-07-30T15:00:29.309Z,30528
2017-07-30T15:01:38.999Z,66080
2017-07-30T15:02:48.864Z,11732
2017-07-30T15:03:58.403Z,7724
2017-07-30T15:05:08.269Z,7884
2017-07-30T15:06:17.486Z,7544
2017-07-30T15:07:27.185Z,8452
2017-07-30T15:08:36.728Z,10792
2017-07-30T15:09:46.595Z,7840
2017-07-30T15:10:56.147Z,7392
2017-07-30T15:12:06.018Z,11400
2017-07-30T15:13:15.657Z,19744
2017-07-30T15:14:25.838Z,4696
2017-07-30T15:15:35.383Z,3612
2017-07-30T15:16:44.282Z,3028
2017-07-30T15:17:53.533Z,3184
2017-07-30T15:19:03.546Z,3676
2017-07-30T15:20:13.405Z,3516
2017-07-30T15:21:22.622Z,3124
2017-07-30T15:22:31.838Z,2964
2017-07-30T15:23:40.726Z,2584
2017-07-30T15:24:49.944Z,1764
2017-07-30T15:25:58.835Z,2076
2017-07-30T15:27:08.378Z,3472
2017-07-30T15:28:17.591Z,5408
2017-07-30T15:29:27.785Z,6068
2017-07-30T15:30:37.473Z,5112
2017-07-30T15:31:46.691Z,3980
2017-07-30T15:32:56.551Z,2720
2017-07-30T15:34:05.765Z,2636
2017-07-30T15:35:14.979Z,3476
2017-07-30T15:36:24.491Z,4844
2017-07-30T15:37:34.349Z,7068
2017-07-30T15:38:43.882Z,9936
2017-07-30T15:39:52.775Z,11504
2017-07-30T15:41:01.997Z,15584
2017-07-30T15:42:11.548Z,7528
2017-07-30T15:43:21.407Z,10508
2017-07-30T15:44:30.952Z,10032